Flugplatz Bad Dürkheim

Für EDRF sind keine METAR/TAF Berichte vorhanden.
Es werden die Flugwettermeldungen vom Flugplatz Mannheim-City in 22 km Entfernung angezeigt.

Bericht für EDFM

vom 20.10. um 18:50 UTC

variable Windrichtung mit 2 kt

Sichtweite 10 km oder mehr

gute Sicht, keine Wolken < 5000 ft, keine CB, keine Wettererscheinungen (CAVOK)

Temperatur 14.0°C

Taupunkt 14.0°C

Luftfeuchtigkeit 100%

Luftdruck 1008 hPa

EDFM 201850Z VRB02KT CAVOK 14/14 Q1008
Keine Prognose (TAF) verfügbar.
Impressum